sensor_id;sensor_type;location;lat;lon;timestamp;P1;durP1;ratioP1;P2;durP2;ratioP2
20637;SDS011;10478;49.004;8.470;2022-07-05T00:02:11;2.70;;;1.40;;
20637;SDS011;10478;49.004;8.470;2022-07-05T00:04:37;4.20;;;1.30;;
20637;SDS011;10478;49.004;8.470;2022-07-05T00:07:02;2.40;;;1.70;;
20637;SDS011;10478;49.004;8.470;2022-07-05T00:09:43;4.10;;;1.50;;
20637;SDS011;10478;49.004;8.470;2022-07-05T00:12:12;1.80;;;1.30;;
20637;SDS011;10478;49.004;8.470;2022-07-05T00:14:38;5.25;;;1.23;;
20637;SDS011;10478;49.004;8.470;2022-07-05T00:17:04;4.22;;;1.42;;
20637;SDS011;10478;49.004;8.470;2022-07-05T00:19:29;1.45;;;1.10;;
20637;SDS011;10478;49.004;8.470;2022-07-05T00:21:55;2.17;;;1.20;;
20637;SDS011;10478;49.004;8.470;2022-07-05T00:24:20;2.00;;;1.20;;
20637;SDS011;10478;49.004;8.470;2022-07-05T00:26:46;2.17;;;1.55;;
20637;SDS011;10478;49.004;8.470;2022-07-05T00:29:11;3.00;;;1.70;;
20637;SDS011;10478;49.004;8.470;2022-07-05T00:31:36;2.45;;;1.52;;
20637;SDS011;10478;49.004;8.470;2022-07-05T00:34:02;1.58;;;1.20;;
20637;SDS011;10478;49.004;8.470;2022-07-05T00:36:27;4.50;;;1.65;;
20637;SDS011;10478;49.004;8.470;2022-07-05T00:38:53;2.92;;;1.45;;
20637;SDS011;10478;49.004;8.470;2022-07-05T00:41:18;3.67;;;1.45;;
20637;SDS011;10478;49.004;8.470;2022-07-05T00:43:53;3.10;;;1.45;;
20637;SDS011;10478;49.004;8.470;2022-07-05T00:46:20;1.17;;;1.08;;
20637;SDS011;10478;49.004;8.470;2022-07-05T00:48:46;2.47;;;1.13;;
20637;SDS011;10478;49.004;8.470;2022-07-05T00:51:11;2.78;;;1.63;;
20637;SDS011;10478;49.004;8.470;2022-07-05T00:53:36;2.22;;;1.33;;
20637;SDS011;10478;49.004;8.470;2022-07-05T00:56:02;2.13;;;1.48;;
20637;SDS011;10478;49.004;8.470;2022-07-05T00:58:27;1.83;;;1.58;;
20637;SDS011;10478;49.004;8.470;2022-07-05T01:00:53;3.40;;;1.20;;
20637;SDS011;10478;49.004;8.470;2022-07-05T01:03:19;1.63;;;1.27;;
20637;SDS011;10478;49.004;8.470;2022-07-05T01:05:44;2.55;;;1.17;;
20637;SDS011;10478;49.004;8.470;2022-07-05T01:08:09;2.63;;;1.70;;
20637;SDS011;10478;49.004;8.470;2022-07-05T01:10:37;3.50;;;1.83;;
20637;SDS011;10478;49.004;8.470;2022-07-05T01:13:03;3.05;;;1.40;;
20637;SDS011;10478;49.004;8.470;2022-07-05T01:15:28;1.77;;;1.42;;
20637;SDS011;10478;49.004;8.470;2022-07-05T01:17:53;3.25;;;2.38;;
20637;SDS011;10478;49.004;8.470;2022-07-05T01:20:19;2.67;;;1.60;;
20637;SDS011;10478;49.004;8.470;2022-07-05T01:22:54;2.40;;;1.38;;
20637;SDS011;10478;49.004;8.470;2022-07-05T01:25:21;2.65;;;1.60;;
20637;SDS011;10478;49.004;8.470;2022-07-05T01:27:47;2.17;;;1.70;;
20637;SDS011;10478;49.004;8.470;2022-07-05T01:30:13;4.75;;;1.90;;
20637;SDS011;10478;49.004;8.470;2022-07-05T01:32:39;4.38;;;1.67;;
20637;SDS011;10478;49.004;8.470;2022-07-05T01:35:04;2.65;;;1.42;;
20637;SDS011;10478;49.004;8.470;2022-07-05T01:37:29;1.90;;;1.45;;
20637;SDS011;10478;49.004;8.470;2022-07-05T01:39:55;2.65;;;1.85;;
20637;SDS011;10478;49.004;8.470;2022-07-05T01:42:21;2.08;;;1.38;;
20637;SDS011;10478;49.004;8.470;2022-07-05T01:44:46;3.20;;;1.63;;
20637;SDS011;10478;49.004;8.470;2022-07-05T01:47:12;2.38;;;1.30;;
20637;SDS011;10478;49.004;8.470;2022-07-05T01:49:39;1.42;;;1.27;;
20637;SDS011;10478;49.004;8.470;2022-07-05T01:52:08;5.10;;;2.30;;
20637;SDS011;10478;49.004;8.470;2022-07-05T01:54:35;3.78;;;1.60;;
20637;SDS011;10478;49.004;8.470;2022-07-05T01:57:00;2.30;;;1.35;;
20637;SDS011;10478;49.004;8.470;2022-07-05T01:59:27;3.20;;;1.35;;
20637;SDS011;10478;49.004;8.470;2022-07-05T02:01:52;1.67;;;1.40;;
20637;SDS011;10478;49.004;8.470;2022-07-05T02:04:18;5.07;;;1.38;;
20637;SDS011;10478;49.004;8.470;2022-07-05T02:06:44;1.45;;;1.08;;
20637;SDS011;10478;49.004;8.470;2022-07-05T02:09:10;3.65;;;1.65;;
20637;SDS011;10478;49.004;8.470;2022-07-05T02:11:35;7.10;;;1.55;;
20637;SDS011;10478;49.004;8.470;2022-07-05T02:14:01;2.67;;;1.50;;
20637;SDS011;10478;49.004;8.470;2022-07-05T02:16:27;1.75;;;1.33;;
20637;SDS011;10478;49.004;8.470;2022-07-05T02:18:53;1.55;;;1.10;;
20637;SDS011;10478;49.004;8.470;2022-07-05T02:21:18;1.85;;;1.45;;
20637;SDS011;10478;49.004;8.470;2022-07-05T02:23:43;4.13;;;1.20;;
20637;SDS011;10478;49.004;8.470;2022-07-05T02:26:09;8.30;;;1.48;;
20637;SDS011;10478;49.004;8.470;2022-07-05T02:28:34;2.72;;;1.35;;
20637;SDS011;10478;49.004;8.470;2022-07-05T02:30:59;1.45;;;1.10;;
20637;SDS011;10478;49.004;8.470;2022-07-05T02:33:25;1.90;;;1.20;;
20637;SDS011;10478;49.004;8.470;2022-07-05T02:35:50;1.70;;;1.20;;
20637;SDS011;10478;49.004;8.470;2022-07-05T02:38:15;3.45;;;1.40;;
20637;SDS011;10478;49.004;8.470;2022-07-05T02:40:41;1.95;;;1.23;;
20637;SDS011;10478;49.004;8.470;2022-07-05T02:43:06;4.80;;;1.77;;
20637;SDS011;10478;49.004;8.470;2022-07-05T02:45:31;4.90;;;1.20;;
20637;SDS011;10478;49.004;8.470;2022-07-05T02:47:57;2.60;;;1.67;;
20637;SDS011;10478;49.004;8.470;2022-07-05T02:50:22;1.92;;;1.42;;
20637;SDS011;10478;49.004;8.470;2022-07-05T02:52:48;4.45;;;2.08;;
20637;SDS011;10478;49.004;8.470;2022-07-05T02:55:13;2.03;;;1.50;;
20637;SDS011;10478;49.004;8.470;2022-07-05T02:57:38;3.75;;;1.40;;
20637;SDS011;10478;49.004;8.470;2022-07-05T03:00:04;2.55;;;1.52;;
20637;SDS011;10478;49.004;8.470;2022-07-05T03:02:30;2.20;;;1.60;;
20637;SDS011;10478;49.004;8.470;2022-07-05T03:04:55;2.65;;;1.50;;
20637;SDS011;10478;49.004;8.470;2022-07-05T03:07:21;1.85;;;1.45;;
20637;SDS011;10478;49.004;8.470;2022-07-05T03:09:46;5.18;;;1.73;;
20637;SDS011;10478;49.004;8.470;2022-07-05T03:12:11;2.85;;;1.58;;
20637;SDS011;10478;49.004;8.470;2022-07-05T03:14:37;2.47;;;1.33;;
20637;SDS011;10478;49.004;8.470;2022-07-05T03:17:02;2.20;;;1.42;;
20637;SDS011;10478;49.004;8.470;2022-07-05T03:19:27;2.28;;;1.10;;
20637;SDS011;10478;49.004;8.470;2022-07-05T03:21:53;3.40;;;1.92;;
20637;SDS011;10478;49.004;8.470;2022-07-05T03:24:18;6.18;;;2.20;;
20637;SDS011;10478;49.004;8.470;2022-07-05T03:26:44;4.53;;;1.98;;
20637;SDS011;10478;49.004;8.470;2022-07-05T03:29:09;3.40;;;1.20;;
20637;SDS011;10478;49.004;8.470;2022-07-05T03:31:35;3.83;;;1.50;;
20637;SDS011;10478;49.004;8.470;2022-07-05T03:34:00;2.78;;;1.85;;
20637;SDS011;10478;49.004;8.470;2022-07-05T03:36:26;4.85;;;1.75;;
20637;SDS011;10478;49.004;8.470;2022-07-05T03:38:51;3.17;;;1.73;;
20637;SDS011;10478;49.004;8.470;2022-07-05T03:41:16;2.50;;;1.45;;
20637;SDS011;10478;49.004;8.470;2022-07-05T03:43:42;3.83;;;1.70;;
20637;SDS011;10478;49.004;8.470;2022-07-05T03:46:07;2.13;;;1.55;;
20637;SDS011;10478;49.004;8.470;2022-07-05T03:48:33;2.40;;;1.83;;
20637;SDS011;10478;49.004;8.470;2022-07-05T03:50:58;2.00;;;1.35;;
20637;SDS011;10478;49.004;8.470;2022-07-05T03:53:24;3.15;;;1.88;;
20637;SDS011;10478;49.004;8.470;2022-07-05T03:55:49;2.25;;;1.70;;
20637;SDS011;10478;49.004;8.470;2022-07-05T03:58:14;2.13;;;1.45;;
20637;SDS011;10478;49.004;8.470;2022-07-05T04:00:40;2.67;;;1.60;;
20637;SDS011;10478;49.004;8.470;2022-07-05T04:03:05;2.85;;;1.55;;
20637;SDS011;10478;49.004;8.470;2022-07-05T04:05:31;3.25;;;1.45;;
20637;SDS011;10478;49.004;8.470;2022-07-05T04:07:56;2.00;;;1.40;;
20637;SDS011;10478;49.004;8.470;2022-07-05T04:10:22;2.40;;;1.63;;
20637;SDS011;10478;49.004;8.470;2022-07-05T04:12:47;5.32;;;1.70;;
20637;SDS011;10478;49.004;8.470;2022-07-05T04:15:13;3.08;;;1.73;;
20637;SDS011;10478;49.004;8.470;2022-07-05T04:17:52;2.30;;;1.65;;
20637;SDS011;10478;49.004;8.470;2022-07-05T04:20:19;3.63;;;1.67;;
20637;SDS011;10478;49.004;8.470;2022-07-05T04:22:46;2.20;;;1.42;;
20637;SDS011;10478;49.004;8.470;2022-07-05T04:25:11;2.08;;;1.23;;
20637;SDS011;10478;49.004;8.470;2022-07-05T04:27:44;3.78;;;1.95;;
20637;SDS011;10478;49.004;8.470;2022-07-05T04:30:10;2.00;;;1.40;;
20637;SDS011;10478;49.004;8.470;2022-07-05T04:32:35;2.45;;;2.05;;
20637;SDS011;10478;49.004;8.470;2022-07-05T04:35:00;3.03;;;1.30;;
20637;SDS011;10478;49.004;8.470;2022-07-05T04:37:26;5.25;;;1.63;;
20637;SDS011;10478;49.004;8.470;2022-07-05T04:39:52;2.03;;;1.20;;
20637;SDS011;10478;49.004;8.470;2022-07-05T04:42:17;3.85;;;1.42;;
20637;SDS011;10478;49.004;8.470;2022-07-05T04:44:42;1.30;;;1.20;;
20637;SDS011;10478;49.004;8.470;2022-07-05T04:47:08;4.20;;;1.50;;
20637;SDS011;10478;49.004;8.470;2022-07-05T04:49:33;3.47;;;1.88;;
20637;SDS011;10478;49.004;8.470;2022-07-05T04:51:58;1.85;;;1.25;;
20637;SDS011;10478;49.004;8.470;2022-07-05T04:54:24;2.90;;;2.00;;
20637;SDS011;10478;49.004;8.470;2022-07-05T04:56:49;1.83;;;1.33;;
20637;SDS011;10478;49.004;8.470;2022-07-05T04:59:14;2.15;;;1.60;;
20637;SDS011;10478;49.004;8.470;2022-07-05T05:01:40;2.15;;;1.48;;
20637;SDS011;10478;49.004;8.470;2022-07-05T05:04:05;2.90;;;1.58;;
20637;SDS011;10478;49.004;8.470;2022-07-05T05:06:30;4.93;;;1.60;;
20637;SDS011;10478;49.004;8.470;2022-07-05T05:08:56;3.00;;;1.85;;
20637;SDS011;10478;49.004;8.470;2022-07-05T05:11:21;4.25;;;1.88;;
20637;SDS011;10478;49.004;8.470;2022-07-05T05:13:46;2.50;;;1.92;;
20637;SDS011;10478;49.004;8.470;2022-07-05T05:16:12;2.58;;;1.77;;
20637;SDS011;10478;49.004;8.470;2022-07-05T05:18:37;2.97;;;1.73;;
20637;SDS011;10478;49.004;8.470;2022-07-05T05:21:03;5.03;;;1.92;;
20637;SDS011;10478;49.004;8.470;2022-07-05T05:23:29;4.68;;;2.08;;
20637;SDS011;10478;49.004;8.470;2022-07-05T05:25:54;5.90;;;3.50;;
20637;SDS011;10478;49.004;8.470;2022-07-05T05:28:19;6.03;;;1.92;;
20637;SDS011;10478;49.004;8.470;2022-07-05T05:30:45;4.13;;;2.20;;
20637;SDS011;10478;49.004;8.470;2022-07-05T05:33:10;5.68;;;2.20;;
20637;SDS011;10478;49.004;8.470;2022-07-05T05:35:35;5.32;;;2.42;;
20637;SDS011;10478;49.004;8.470;2022-07-05T05:38:01;5.07;;;1.77;;
20637;SDS011;10478;49.004;8.470;2022-07-05T05:40:26;3.85;;;2.05;;
20637;SDS011;10478;49.004;8.470;2022-07-05T05:42:52;5.70;;;3.53;;
20637;SDS011;10478;49.004;8.470;2022-07-05T05:45:18;3.53;;;2.30;;
20637;SDS011;10478;49.004;8.470;2022-07-05T05:50:21;4.70;;;2.22;;
20637;SDS011;10478;49.004;8.470;2022-07-05T05:52:48;3.70;;;2.35;;
20637;SDS011;10478;49.004;8.470;2022-07-05T05:55:14;4.20;;;1.85;;
20637;SDS011;10478;49.004;8.470;2022-07-05T05:57:39;5.15;;;3.35;;
20637;SDS011;10478;49.004;8.470;2022-07-05T06:00:05;2.42;;;1.67;;
20637;SDS011;10478;49.004;8.470;2022-07-05T06:02:31;3.28;;;1.92;;
20637;SDS011;10478;49.004;8.470;2022-07-05T06:04:56;4.53;;;3.10;;
20637;SDS011;10478;49.004;8.470;2022-07-05T06:07:21;3.30;;;2.03;;
20637;SDS011;10478;49.004;8.470;2022-07-05T06:09:47;6.65;;;3.28;;
20637;SDS011;10478;49.004;8.470;2022-07-05T06:12:12;11.50;;;7.07;;
20637;SDS011;10478;49.004;8.470;2022-07-05T06:14:38;6.40;;;3.33;;
20637;SDS011;10478;49.004;8.470;2022-07-05T06:17:03;5.95;;;3.83;;
20637;SDS011;10478;49.004;8.470;2022-07-05T06:19:29;5.03;;;2.70;;
20637;SDS011;10478;49.004;8.470;2022-07-05T06:21:54;3.38;;;1.10;;
20637;SDS011;10478;49.004;8.470;2022-07-05T06:24:19;3.70;;;1.60;;
20637;SDS011;10478;49.004;8.470;2022-07-05T06:26:45;8.85;;;2.50;;
20637;SDS011;10478;49.004;8.470;2022-07-05T06:29:10;4.10;;;1.92;;
20637;SDS011;10478;49.004;8.470;2022-07-05T06:31:35;2.63;;;1.45;;
20637;SDS011;10478;49.004;8.470;2022-07-05T06:34:01;4.03;;;1.80;;
20637;SDS011;10478;49.004;8.470;2022-07-05T06:36:26;11.57;;;3.78;;
20637;SDS011;10478;49.004;8.470;2022-07-05T06:38:51;3.47;;;1.98;;
20637;SDS011;10478;49.004;8.470;2022-07-05T06:41:17;6.95;;;1.88;;
20637;SDS011;10478;49.004;8.470;2022-07-05T06:43:42;6.28;;;2.80;;
20637;SDS011;10478;49.004;8.470;2022-07-05T06:46:07;7.50;;;3.95;;
20637;SDS011;10478;49.004;8.470;2022-07-05T06:48:33;8.75;;;4.07;;
20637;SDS011;10478;49.004;8.470;2022-07-05T06:50:58;3.13;;;1.60;;
20637;SDS011;10478;49.004;8.470;2022-07-05T06:53:23;4.72;;;1.42;;
20637;SDS011;10478;49.004;8.470;2022-07-05T06:55:49;5.82;;;1.83;;
20637;SDS011;10478;49.004;8.470;2022-07-05T06:58:15;5.75;;;2.50;;
20637;SDS011;10478;49.004;8.470;2022-07-05T07:00:40;2.63;;;1.70;;
20637;SDS011;10478;49.004;8.470;2022-07-05T07:03:06;4.35;;;2.30;;
20637;SDS011;10478;49.004;8.470;2022-07-05T07:05:32;6.85;;;2.60;;
20637;SDS011;10478;49.004;8.470;2022-07-05T07:07:57;3.35;;;2.45;;
20637;SDS011;10478;49.004;8.470;2022-07-05T07:10:41;4.82;;;1.90;;
20637;SDS011;10478;49.004;8.470;2022-07-05T07:13:06;5.55;;;2.53;;
20637;SDS011;10478;49.004;8.470;2022-07-05T07:15:32;10.45;;;4.72;;
20637;SDS011;10478;49.004;8.470;2022-07-05T07:17:58;3.78;;;2.25;;
20637;SDS011;10478;49.004;8.470;2022-07-05T07:20:24;7.93;;;3.75;;
20637;SDS011;10478;49.004;8.470;2022-07-05T07:22:49;4.85;;;2.33;;
20637;SDS011;10478;49.004;8.470;2022-07-05T07:25:15;3.50;;;2.47;;
20637;SDS011;10478;49.004;8.470;2022-07-05T07:27:45;8.60;;;3.33;;
20637;SDS011;10478;49.004;8.470;2022-07-05T07:30:13;4.07;;;1.83;;
20637;SDS011;10478;49.004;8.470;2022-07-05T07:32:39;4.03;;;1.30;;
20637;SDS011;10478;49.004;8.470;2022-07-05T07:35:05;2.85;;;1.20;;
20637;SDS011;10478;49.004;8.470;2022-07-05T07:37:31;7.65;;;3.13;;
20637;SDS011;10478;49.004;8.470;2022-07-05T07:39:57;8.32;;;1.73;;
20637;SDS011;10478;49.004;8.470;2022-07-05T07:42:23;4.20;;;1.33;;
20637;SDS011;10478;49.004;8.470;2022-07-05T07:44:49;4.88;;;1.25;;
20637;SDS011;10478;49.004;8.470;2022-07-05T07:47:14;5.47;;;2.47;;
20637;SDS011;10478;49.004;8.470;2022-07-05T07:49:39;7.95;;;2.17;;
20637;SDS011;10478;49.004;8.470;2022-07-05T07:52:06;4.03;;;1.63;;
20637;SDS011;10478;49.004;8.470;2022-07-05T07:54:31;3.60;;;1.60;;
20637;SDS011;10478;49.004;8.470;2022-07-05T07:56:57;3.40;;;1.50;;
20637;SDS011;10478;49.004;8.470;2022-07-05T07:59:22;2.03;;;1.20;;
20637;SDS011;10478;49.004;8.470;2022-07-05T08:01:47;2.85;;;1.30;;
20637;SDS011;10478;49.004;8.470;2022-07-05T08:04:13;7.75;;;1.70;;
20637;SDS011;10478;49.004;8.470;2022-07-05T08:06:38;2.92;;;1.45;;
20637;SDS011;10478;49.004;8.470;2022-07-05T08:09:04;4.32;;;1.48;;
20637;SDS011;10478;49.004;8.470;2022-07-05T08:11:29;2.10;;;1.20;;
20637;SDS011;10478;49.004;8.470;2022-07-05T08:13:54;2.83;;;1.45;;
20637;SDS011;10478;49.004;8.470;2022-07-05T08:16:21;2.10;;;1.20;;
20637;SDS011;10478;49.004;8.470;2022-07-05T08:18:46;1.73;;;1.30;;
20637;SDS011;10478;49.004;8.470;2022-07-05T08:21:30;2.72;;;1.20;;
20637;SDS011;10478;49.004;8.470;2022-07-05T08:24:05;7.57;;;1.30;;
20637;SDS011;10478;49.004;8.470;2022-07-05T08:26:32;3.13;;;1.10;;
20637;SDS011;10478;49.004;8.470;2022-07-05T08:28:58;6.85;;;1.77;;
20637;SDS011;10478;49.004;8.470;2022-07-05T08:31:25;1.98;;;0.90;;
20637;SDS011;10478;49.004;8.470;2022-07-05T08:33:51;1.38;;;0.90;;
20637;SDS011;10478;49.004;8.470;2022-07-05T08:36:16;1.88;;;1.00;;
20637;SDS011;10478;49.004;8.470;2022-07-05T08:38:41;1.67;;;0.93;;
20637;SDS011;10478;49.004;8.470;2022-07-05T08:41:07;1.85;;;0.77;;
20637;SDS011;10478;49.004;8.470;2022-07-05T08:43:34;2.50;;;1.02;;
20637;SDS011;10478;49.004;8.470;2022-07-05T08:46:00;2.60;;;1.10;;
20637;SDS011;10478;49.004;8.470;2022-07-05T08:48:25;1.45;;;0.90;;
20637;SDS011;10478;49.004;8.470;2022-07-05T08:50:52;2.08;;;1.13;;
20637;SDS011;10478;49.004;8.470;2022-07-05T08:53:20;2.33;;;1.15;;
20637;SDS011;10478;49.004;8.470;2022-07-05T08:55:46;2.03;;;1.10;;
20637;SDS011;10478;49.004;8.470;2022-07-05T08:58:11;1.85;;;1.00;;
20637;SDS011;10478;49.004;8.470;2022-07-05T09:00:37;2.28;;;1.02;;
20637;SDS011;10478;49.004;8.470;2022-07-05T09:03:03;2.25;;;0.90;;
20637;SDS011;10478;49.004;8.470;2022-07-05T09:05:30;4.65;;;1.10;;
20637;SDS011;10478;49.004;8.470;2022-07-05T09:07:59;2.15;;;1.10;;
20637;SDS011;10478;49.004;8.470;2022-07-05T09:10:26;4.75;;;1.13;;
20637;SDS011;10478;49.004;8.470;2022-07-05T09:12:53;2.35;;;0.82;;
20637;SDS011;10478;49.004;8.470;2022-07-05T09:15:19;1.70;;;0.95;;
20637;SDS011;10478;49.004;8.470;2022-07-05T09:17:45;2.38;;;1.30;;
20637;SDS011;10478;49.004;8.470;2022-07-05T09:20:20;4.15;;;1.00;;
20637;SDS011;10478;49.004;8.470;2022-07-05T09:22:46;5.20;;;0.93;;
20637;SDS011;10478;49.004;8.470;2022-07-05T09:25:27;1.33;;;0.70;;
20637;SDS011;10478;49.004;8.470;2022-07-05T09:30:27;1.80;;;1.00;;
20637;SDS011;10478;49.004;8.470;2022-07-05T09:35:27;4.72;;;1.17;;
20637;SDS011;10478;49.004;8.470;2022-07-05T09:37:53;1.52;;;0.73;;
20637;SDS011;10478;49.004;8.470;2022-07-05T09:40:19;1.63;;;0.75;;
20637;SDS011;10478;49.004;8.470;2022-07-05T09:42:44;6.68;;;4.43;;
20637;SDS011;10478;49.004;8.470;2022-07-05T09:45:09;5.13;;;2.97;;
20637;SDS011;10478;49.004;8.470;2022-07-05T09:47:35;1.65;;;0.80;;
20637;SDS011;10478;49.004;8.470;2022-07-05T09:50:00;2.10;;;0.70;;
20637;SDS011;10478;49.004;8.470;2022-07-05T09:55:00;1.25;;;0.85;;
20637;SDS011;10478;49.004;8.470;2022-07-05T09:57:29;1.30;;;0.77;;
20637;SDS011;10478;49.004;8.470;2022-07-05T09:59:58;4.72;;;1.05;;
20637;SDS011;10478;49.004;8.470;2022-07-05T10:02:35;1.20;;;0.70;;
20637;SDS011;10478;49.004;8.470;2022-07-05T10:05:11;3.10;;;0.88;;
20637;SDS011;10478;49.004;8.470;2022-07-05T10:07:38;1.13;;;0.65;;
20637;SDS011;10478;49.004;8.470;2022-07-05T10:10:05;2.65;;;0.90;;
20637;SDS011;10478;49.004;8.470;2022-07-05T10:12:31;2.67;;;0.80;;
20637;SDS011;10478;49.004;8.470;2022-07-05T10:14:58;1.77;;;0.98;;
20637;SDS011;10478;49.004;8.470;2022-07-05T10:17:24;2.22;;;0.60;;
20637;SDS011;10478;49.004;8.470;2022-07-05T10:19:51;2.42;;;0.70;;
20637;SDS011;10478;49.004;8.470;2022-07-05T10:22:17;7.40;;;0.70;;
20637;SDS011;10478;49.004;8.470;2022-07-05T10:24:43;3.03;;;0.90;;
20637;SDS011;10478;49.004;8.470;2022-07-05T10:27:09;1.88;;;0.70;;
20637;SDS011;10478;49.004;8.470;2022-07-05T10:29:36;2.63;;;0.60;;
20637;SDS011;10478;49.004;8.470;2022-07-05T10:32:01;5.32;;;0.77;;
20637;SDS011;10478;49.004;8.470;2022-07-05T10:34:29;1.75;;;0.73;;
20637;SDS011;10478;49.004;8.470;2022-07-05T10:36:57;1.02;;;0.52;;
20637;SDS011;10478;49.004;8.470;2022-07-05T10:39:22;1.48;;;0.90;;
20637;SDS011;10478;49.004;8.470;2022-07-05T10:41:50;1.42;;;0.80;;
20637;SDS011;10478;49.004;8.470;2022-07-05T10:44:26;2.75;;;0.85;;
20637;SDS011;10478;49.004;8.470;2022-07-05T10:47:06;2.35;;;0.68;;
20637;SDS011;10478;49.004;8.470;2022-07-05T10:49:38;0.80;;;0.65;;
20637;SDS011;10478;49.004;8.470;2022-07-05T10:52:04;2.40;;;0.90;;
20637;SDS011;10478;49.004;8.470;2022-07-05T10:58:17;2.88;;;0.90;;
20637;SDS011;10478;49.004;8.470;2022-07-05T11:00:44;1.77;;;0.80;;
20637;SDS011;10478;49.004;8.470;2022-07-05T11:06:02;2.10;;;0.90;;
20637;SDS011;10478;49.004;8.470;2022-07-05T11:08:28;0.57;;;0.57;;
20637;SDS011;10478;49.004;8.470;2022-07-05T11:11:11;1.35;;;0.80;;
20637;SDS011;10478;49.004;8.470;2022-07-05T11:13:40;1.58;;;0.77;;
20637;SDS011;10478;49.004;8.470;2022-07-05T11:16:21;1.13;;;0.90;;
20637;SDS011;10478;49.004;8.470;2022-07-05T11:18:49;2.72;;;0.85;;
20637;SDS011;10478;49.004;8.470;2022-07-05T11:21:17;1.52;;;0.93;;
20637;SDS011;10478;49.004;8.470;2022-07-05T11:23:46;4.72;;;1.88;;
20637;SDS011;10478;49.004;8.470;2022-07-05T11:26:12;2.08;;;0.98;;
20637;SDS011;10478;49.004;8.470;2022-07-05T11:28:41;2.22;;;0.73;;
20637;SDS011;10478;49.004;8.470;2022-07-05T11:31:09;1.35;;;0.70;;
20637;SDS011;10478;49.004;8.470;2022-07-05T11:36:01;0.88;;;0.50;;
20637;SDS011;10478;49.004;8.470;2022-07-05T11:38:28;1.30;;;0.80;;
20637;SDS011;10478;49.004;8.470;2022-07-05T11:40:55;1.40;;;0.75;;
20637;SDS011;10478;49.004;8.470;2022-07-05T11:43:27;1.23;;;0.88;;
20637;SDS011;10478;49.004;8.470;2022-07-05T11:45:59;1.40;;;0.80;;
20637;SDS011;10478;49.004;8.470;2022-07-05T11:48:28;1.63;;;0.95;;
20637;SDS011;10478;49.004;8.470;2022-07-05T11:50:54;1.55;;;0.90;;
20637;SDS011;10478;49.004;8.470;2022-07-05T11:53:26;2.65;;;1.00;;
20637;SDS011;10478;49.004;8.470;2022-07-05T11:55:57;0.85;;;0.60;;
20637;SDS011;10478;49.004;8.470;2022-07-05T11:58:29;3.40;;;0.90;;
20637;SDS011;10478;49.004;8.470;2022-07-05T12:00:56;1.85;;;0.80;;
20637;SDS011;10478;49.004;8.470;2022-07-05T12:03:22;1.77;;;0.70;;
20637;SDS011;10478;49.004;8.470;2022-07-05T12:05:47;3.50;;;0.90;;
20637;SDS011;10478;49.004;8.470;2022-07-05T12:08:19;1.35;;;0.68;;
20637;SDS011;10478;49.004;8.470;2022-07-05T12:10:48;1.90;;;0.90;;
20637;SDS011;10478;49.004;8.470;2022-07-05T12:13:46;2.20;;;0.63;;
20637;SDS011;10478;49.004;8.470;2022-07-05T12:16:12;1.63;;;0.93;;
20637;SDS011;10478;49.004;8.470;2022-07-05T12:18:51;2.90;;;1.27;;
20637;SDS011;10478;49.004;8.470;2022-07-05T12:21:20;2.20;;;0.70;;
20637;SDS011;10478;49.004;8.470;2022-07-05T12:23:46;3.53;;;0.82;;
20637;SDS011;10478;49.004;8.470;2022-07-05T12:26:12;0.82;;;0.47;;
20637;SDS011;10478;49.004;8.470;2022-07-05T12:28:38;4.30;;;0.93;;
20637;SDS011;10478;49.004;8.470;2022-07-05T12:31:20;1.27;;;0.75;;
20637;SDS011;10478;49.004;8.470;2022-07-05T12:33:47;1.60;;;0.80;;
20637;SDS011;10478;49.004;8.470;2022-07-05T12:36:17;1.20;;;0.60;;
20637;SDS011;10478;49.004;8.470;2022-07-05T12:38:43;1.33;;;0.70;;
20637;SDS011;10478;49.004;8.470;2022-07-05T12:41:09;1.17;;;0.88;;
20637;SDS011;10478;49.004;8.470;2022-07-05T12:43:48;2.72;;;0.75;;
20637;SDS011;10478;49.004;8.470;2022-07-05T12:46:14;0.65;;;0.60;;
20637;SDS011;10478;49.004;8.470;2022-07-05T12:48:39;1.17;;;0.70;;
20637;SDS011;10478;49.004;8.470;2022-07-05T12:51:05;1.45;;;0.68;;
20637;SDS011;10478;49.004;8.470;2022-07-05T12:53:31;1.38;;;0.70;;
20637;SDS011;10478;49.004;8.470;2022-07-05T12:56:15;1.83;;;0.80;;
20637;SDS011;10478;49.004;8.470;2022-07-05T12:59:00;1.83;;;0.80;;
20637;SDS011;10478;49.004;8.470;2022-07-05T13:01:33;1.90;;;1.02;;
20637;SDS011;10478;49.004;8.470;2022-07-05T13:14:33;1.42;;;0.77;;
20637;SDS011;10478;49.004;8.470;2022-07-05T13:16:58;1.85;;;0.85;;
20637;SDS011;10478;49.004;8.470;2022-07-05T13:19:23;2.22;;;0.98;;
20637;SDS011;10478;49.004;8.470;2022-07-05T13:21:48;1.77;;;0.95;;
20637;SDS011;10478;49.004;8.470;2022-07-05T13:24:14;1.38;;;1.10;;
20637;SDS011;10478;49.004;8.470;2022-07-05T13:26:39;1.55;;;1.00;;
20637;SDS011;10478;49.004;8.470;2022-07-05T13:29:04;0.85;;;0.77;;
20637;SDS011;10478;49.004;8.470;2022-07-05T13:31:30;1.35;;;0.90;;
20637;SDS011;10478;49.004;8.470;2022-07-05T13:33:55;1.65;;;0.80;;
20637;SDS011;10478;49.004;8.470;2022-07-05T13:36:22;6.47;;;1.23;;
20637;SDS011;10478;49.004;8.470;2022-07-05T13:38:47;1.10;;;0.73;;
20637;SDS011;10478;49.004;8.470;2022-07-05T13:41:12;2.90;;;0.70;;
20637;SDS011;10478;49.004;8.470;2022-07-05T13:43:38;2.33;;;0.80;;
20637;SDS011;10478;49.004;8.470;2022-07-05T13:46:04;0.90;;;0.60;;
20637;SDS011;10478;49.004;8.470;2022-07-05T13:48:29;1.27;;;0.60;;
20637;SDS011;10478;49.004;8.470;2022-07-05T13:50:54;1.20;;;0.55;;
20637;SDS011;10478;49.004;8.470;2022-07-05T13:53:20;1.42;;;0.60;;
20637;SDS011;10478;49.004;8.470;2022-07-05T13:55:46;5.47;;;2.47;;
20637;SDS011;10478;49.004;8.470;2022-07-05T13:58:11;2.13;;;0.90;;
20637;SDS011;10478;49.004;8.470;2022-07-05T14:00:36;4.57;;;1.13;;
20637;SDS011;10478;49.004;8.470;2022-07-05T14:03:02;2.40;;;0.85;;
20637;SDS011;10478;49.004;8.470;2022-07-05T14:05:27;7.43;;;1.00;;
20637;SDS011;10478;49.004;8.470;2022-07-05T14:07:52;1.10;;;0.73;;
20637;SDS011;10478;49.004;8.470;2022-07-05T14:10:18;1.40;;;0.80;;
20637;SDS011;10478;49.004;8.470;2022-07-05T14:12:43;1.67;;;0.80;;
20637;SDS011;10478;49.004;8.470;2022-07-05T14:15:08;1.20;;;0.70;;
20637;SDS011;10478;49.004;8.470;2022-07-05T14:17:34;3.97;;;0.77;;
20637;SDS011;10478;49.004;8.470;2022-07-05T14:19:59;0.93;;;0.55;;
20637;SDS011;10478;49.004;8.470;2022-07-05T14:22:24;4.07;;;0.73;;
20637;SDS011;10478;49.004;8.470;2022-07-05T14:24:50;1.20;;;0.93;;
20637;SDS011;10478;49.004;8.470;2022-07-05T14:27:15;1.73;;;0.80;;
20637;SDS011;10478;49.004;8.470;2022-07-05T14:29:41;3.38;;;0.93;;
20637;SDS011;10478;49.004;8.470;2022-07-05T14:32:06;1.17;;;0.70;;
20637;SDS011;10478;49.004;8.470;2022-07-05T14:34:31;2.25;;;0.80;;
20637;SDS011;10478;49.004;8.470;2022-07-05T14:36:57;2.05;;;0.90;;
20637;SDS011;10478;49.004;8.470;2022-07-05T14:39:24;5.05;;;1.05;;
20637;SDS011;10478;49.004;8.470;2022-07-05T14:41:49;3.75;;;0.90;;
20637;SDS011;10478;49.004;8.470;2022-07-05T14:44:14;1.35;;;0.95;;
20637;SDS011;10478;49.004;8.470;2022-07-05T14:46:40;2.00;;;0.80;;
20637;SDS011;10478;49.004;8.470;2022-07-05T14:49:05;1.33;;;0.90;;
20637;SDS011;10478;49.004;8.470;2022-07-05T14:51:31;1.15;;;0.77;;
20637;SDS011;10478;49.004;8.470;2022-07-05T14:53:56;3.58;;;1.00;;
20637;SDS011;10478;49.004;8.470;2022-07-05T14:56:22;1.83;;;1.13;;
20637;SDS011;10478;49.004;8.470;2022-07-05T14:58:47;1.73;;;0.60;;
20637;SDS011;10478;49.004;8.470;2022-07-05T15:01:14;2.00;;;0.75;;
20637;SDS011;10478;49.004;8.470;2022-07-05T15:03:39;1.27;;;0.65;;
20637;SDS011;10478;49.004;8.470;2022-07-05T15:06:05;5.88;;;1.23;;
20637;SDS011;10478;49.004;8.470;2022-07-05T15:08:30;1.67;;;0.73;;
20637;SDS011;10478;49.004;8.470;2022-07-05T15:10:56;1.33;;;0.75;;
20637;SDS011;10478;49.004;8.470;2022-07-05T15:13:21;1.55;;;1.08;;
20637;SDS011;10478;49.004;8.470;2022-07-05T15:15:46;2.58;;;0.88;;